Time;durP1;ratioP1;P1;durP2;ratioP2;P2;SDS_P1;SDS_P2;PMS_P1;PMS_P2;Temp;Humidity;BMP_temperature;BMP_pressure;BME280_temperature;BME280_humidity;BME280_pressure;Samples;Min_cycle;Max_cycle;Signal;HPM_P1;HPM_P2
2022/04/23 00:10:47;;;;;;;130.10;59.00;;;;;;;0.68;74.51;97914.15;434299;1266;108778;-41
2022/04/23 00:20:55;;;;;;;109.70;53.00;;;;;;;0.66;74.70;97916.27;434264;1267;98080;-44
2022/04/23 00:31:02;;;;;;;135.80;63.90;;;;;;;0.47;74.93;97921.69;434326;1266;111095;-45
2022/04/23 00:51:18;;;;;;;131.60;59.40;;;;;;;0.06;75.26;97919.45;434197;1267;108674;-43
2022/04/23 01:01:25;;;;;;;130.00;58.50;;;;;;;-0.08;75.33;97917.25;434302;1266;97895;-46
2022/04/23 01:11:32;;;;;;;90.40;46.80;;;;;;;-0.20;75.40;97922.85;434371;1266;111084;-42
2022/04/23 01:21:39;;;;;;;81.60;42.40;;;;;;;-0.20;75.59;97914.86;434178;1266;108736;-41
2022/04/23 01:31:46;;;;;;;83.20;42.10;;;;;;;-0.14;75.62;97893.27;435099;1255;97928;-43
2022/04/23 01:41:54;;;;;;;78.60;38.00;;;;;;;-0.07;75.73;97888.75;434179;1265;108997;-43
2022/04/23 01:52:01;;;;;;;77.00;37.50;;;;;;;-0.02;75.93;97879.17;434300;1267;97900;-41
2022/04/23 02:02:08;;;;;;;89.20;48.10;;;;;;;-0.01;76.05;97882.16;434214;1267;110138;-42
2022/04/23 02:12:16;;;;;;;87.50;48.00;;;;;;;-0.12;76.13;97880.46;434270;1265;108784;-44
2022/04/23 02:22:23;;;;;;;88.10;46.90;;;;;;;-0.23;76.29;97884.66;434330;1268;108888;-44
2022/04/23 02:32:30;;;;;;;86.60;46.80;;;;;;;-0.41;76.31;97888.80;434319;1267;97904;-46
2022/04/23 02:52:45;;;;;;;59.70;32.70;;;;;;;-0.47;76.37;97893.48;434256;1267;108962;-41
2022/04/23 03:02:52;;;;;;;64.40;32.90;;;;;;;-0.30;76.78;97889.55;434244;1266;97069;-43
2022/04/23 03:13:00;;;;;;;51.10;25.50;;;;;;;-0.18;77.02;97892.61;434238;1267;111156;-40
2022/04/23 03:23:08;;;;;;;44.50;27.10;;;;;;;-0.08;77.08;97898.73;434307;1266;108789;-44
2022/04/23 03:33:16;;;;;;;57.90;31.20;;;;;;;0.02;77.21;97911.48;434374;1266;97370;-45
2022/04/23 03:53:30;;;;;;;52.90;29.20;;;;;;;-0.23;77.02;97922.36;434409;1266;108728;-41
2022/04/23 04:03:37;;;;;;;56.70;30.70;;;;;;;-0.25;77.12;97924.95;434233;1266;108806;-43
2022/04/23 04:13:45;;;;;;;46.30;27.00;;;;;;;-0.15;77.13;97924.22;434226;1267;97522;-41
2022/04/23 04:23:52;;;;;;;50.80;29.00;;;;;;;0.21;77.41;97920.42;434255;1265;111363;-43
2022/04/23 04:33:59;;;;;;;54.80;32.30;;;;;;;1.47;77.52;97920.73;434275;1266;108790;-44
2022/04/23 04:44:07;;;;;;;59.60;32.60;;;;;;;2.80;77.05;97920.42;434158;1268;97896;-42
2022/04/23 04:54:17;;;;;;;66.40;40.70;;;;;;;3.91;76.56;97916.31;434386;1266;111032;-41
2022/04/23 05:04:25;;;;;;;59.70;36.90;;;;;;;5.54;76.25;97908.78;434350;1266;108777;-41
2022/04/23 05:14:32;;;;;;;50.50;33.40;;;;;;;7.07;75.56;97904.79;434306;1268;96695;-42
2022/04/23 05:24:45;;;;;;;42.20;28.70;;;;;;;8.06;75.02;97897.42;434245;1266;111147;-45
2022/04/23 05:34:52;;;;;;;35.80;22.40;;;;;;;8.97;74.60;97903.98;434213;1267;108829;-42
2022/04/23 05:44:59;;;;;;;39.90;25.00;;;;;;;9.93;74.44;97911.32;434354;1268;96656;-43
2022/04/23 06:05:16;;;;;;;25.60;17.10;;;;;;;11.52;72.71;97918.30;434079;1267;109757;-47
2022/04/23 06:15:23;;;;;;;20.50;14.50;;;;;;;11.87;70.91;97917.85;433951;1268;566533;-44
2022/04/23 06:25:31;;;;;;;13.30;10.60;;;;;;;11.90;68.90;97918.95;434233;1266;109697;-41
2022/04/23 06:35:38;;;;;;;10.60;8.90;;;;;;;12.18;67.53;97921.16;434152;1267;108882;-41
2022/04/23 06:45:45;;;;;;;14.00;10.50;;;;;;;12.50;65.49;97918.50;434433;1268;97475;-44
2022/04/23 07:05:56;;;;;;;15.60;11.10;;;;;;;13.31;63.39;97896.30;434415;1268;108744;-45
2022/04/23 07:26:16;;;;;;;25.00;13.50;;;;;;;13.51;61.47;97884.70;434441;1266;111020;-42
2022/04/23 07:46:49;;;;;;;13.20;10.20;;;;;;;13.88;58.76;97871.54;434237;1268;97460;-43
2022/04/23 07:56:56;;;;;;;10.10;9.10;;;;;;;13.97;58.31;97864.34;434223;1268;110324;-44
2022/04/23 08:07:03;;;;;;;10.50;9.40;;;;;;;13.95;57.57;97864.50;434379;1268;108852;-45
2022/04/23 08:17:11;;;;;;;14.40;11.60;;;;;;;14.01;56.08;97863.64;434327;1265;97496;-45
2022/04/23 08:27:18;;;;;;;13.00;11.20;;;;;;;14.06;54.85;97856.66;434239;1268;111579;-43
2022/04/23 08:37:24;;;;;;;17.20;13.20;;;;;;;14.11;54.47;97851.98;434203;1268;108377;-43
2022/04/23 08:47:37;;;;;;;15.10;12.60;;;;;;;14.34;53.80;97834.75;434162;1266;97855;-45
2022/04/23 08:57:44;;;;;;;14.10;10.10;;;;;;;14.48;54.21;97827.35;434152;1267;107742;-45
2022/04/23 09:28:26;;;;;;;8.60;7.70;;;;;;;14.56;51.63;97815.09;433992;1267;108920;-45
2022/04/23 09:38:34;;;;;;;7.40;6.70;;;;;;;14.40;51.50;97815.43;434243;1266;96667;-45
2022/04/23 09:58:50;;;;;;;10.90;8.00;;;;;;;13.84;52.41;97820.63;434208;1268;108393;-42
2022/04/23 10:09:01;;;;;;;10.20;9.20;;;;;;;14.35;52.04;97817.16;434288;1265;98033;-45
2022/04/23 10:29:17;;;;;;;11.60;10.30;;;;;;;14.30;52.41;97824.45;434397;1266;109107;-45
2022/04/23 10:39:25;;;;;;;13.40;10.90;;;;;;;14.81;52.36;97822.13;434354;1266;97785;-45
2022/04/23 10:49:32;;;;;;;11.00;9.70;;;;;;;14.47;52.41;97833.45;434238;1266;111094;-44
2022/04/23 11:20:08;;;;;;;9.50;8.10;;;;;;;15.39;50.50;97816.36;434352;1266;111010;-45
2022/04/23 11:30:16;;;;;;;11.70;7.60;;;;;;;15.44;49.59;97815.89;434435;1266;108779;-41
2022/04/23 11:40:28;;;;;;;8.70;7.40;;;;;;;15.44;48.69;97810.02;434326;1267;97913;-44
2022/04/23 11:50:35;;;;;;;7.30;6.30;;;;;;;14.96;48.25;97811.75;434372;1266;111051;-46
2022/04/23 12:00:49;;;;;;;7.90;7.10;;;;;;;14.77;48.18;97815.70;434371;1266;109000;-44
2022/04/23 12:10:56;;;;;;;7.70;6.50;;;;;;;14.93;47.83;97806.83;434390;1266;97897;-43
2022/04/23 12:41:37;;;;;;;7.10;6.40;;;;;;;14.63;47.51;97803.79;434336;1266;97798;-40
2022/04/23 13:01:57;;;;;;;12.20;7.00;;;;;;;14.82;48.38;97789.39;434263;1266;109702;-46
2022/04/23 13:12:03;;;;;;;7.80;6.90;;;;;;;14.69;48.20;97791.02;434295;1266;96609;-41
2022/04/23 13:22:11;;;;;;;8.80;7.20;;;;;;;14.31;47.75;97796.37;434400;1268;110201;-40
2022/04/23 13:32:18;;;;;;;7.40;6.70;;;;;;;13.80;48.09;97804.11;434216;1267;108912;-45
2022/04/23 13:42:27;;;;;;;8.50;7.40;;;;;;;13.90;48.85;97801.00;434288;1266;97965;-45
2022/04/23 13:52:34;;;;;;;8.30;6.50;;;;;;;14.03;48.75;97793.05;434257;1266;109352;-45
2022/04/23 14:13:05;;;;;;;11.20;7.50;;;;;;;13.79;49.30;97792.44;434240;1266;97883;-43
2022/04/23 14:23:13;;;;;;;7.90;7.10;;;;;;;13.89;49.54;97787.56;434270;1266;111003;-42
2022/04/23 14:33:20;;;;;;;8.30;7.60;;;;;;;14.00;49.63;97773.02;434210;1266;108799;-44
2022/04/23 14:53:34;;;;;;;8.80;7.90;;;;;;;13.86;49.90;97749.95;434212;1266;110999;-41
2022/04/23 15:13:48;;;;;;;7.40;6.70;;;;;;;13.98;49.28;97735.76;434279;1266;97955;-45
2022/04/23 15:34:02;;;;;;;6.50;5.90;;;;;;;14.04;47.86;97732.11;434173;1266;97939;-41
2022/04/23 15:44:09;;;;;;;7.00;6.30;;;;;;;14.07;47.67;97735.61;434252;1266;111027;-45
2022/04/23 15:54:16;;;;;;;7.80;6.90;;;;;;;14.08;48.08;97730.02;434242;1266;108823;-41
2022/04/23 16:04:24;;;;;;;7.60;6.70;;;;;;;14.03;48.36;97726.01;434169;1267;97922;-43
2022/04/23 16:14:31;;;;;;;11.40;8.00;;;;;;;13.94;48.83;97725.61;434227;1266;111205;-44
2022/04/23 16:24:59;;;;;;;8.40;7.50;;;;;;;13.96;49.02;97733.21;434278;1266;108816;-44
2022/04/23 16:35:07;;;;;;;10.00;8.60;;;;;;;13.90;49.19;97730.04;434297;1267;97602;-44
2022/04/23 16:55:39;;;;;;;11.50;9.40;;;;;;;13.67;49.56;97742.83;434308;1266;107352;-47
2022/04/23 17:05:46;;;;;;;15.90;11.30;;;;;;;13.45;49.72;97752.63;434279;1266;96685;-43
2022/04/23 17:15:53;;;;;;;16.50;11.10;;;;;;;13.18;49.98;97756.59;434328;1266;111148;-41
2022/04/23 17:26:01;;;;;;;15.40;11.70;;;;;;;12.96;50.65;97759.45;434178;1266;108802;-45
2022/04/23 17:36:07;;;;;;;20.80;13.80;;;;;;;12.69;51.18;97773.66;434142;1267;97499;-46
2022/04/23 17:46:15;;;;;;;19.70;14.60;;;;;;;12.38;51.59;97775.23;434296;1266;109827;-42
2022/04/23 18:16:55;;;;;;;25.50;18.80;;;;;;;11.09;53.60;97809.40;433901;1267;429308;-41
2022/04/23 18:27:02;;;;;;;59.30;31.50;;;;;;;10.69;54.11;97811.54;434326;1267;109135;-44
2022/04/23 18:37:10;;;;;;;58.90;27.80;;;;;;;10.29;54.90;97812.38;434196;1266;97502;-46
2022/04/23 18:47:17;;;;;;;55.00;31.30;;;;;;;9.86;55.71;97813.90;434265;1267;109526;-43
2022/04/23 18:57:24;;;;;;;62.60;38.00;;;;;;;9.42;56.40;97815.20;434265;1267;108146;-42
2022/04/23 19:07:30;;;;;;;53.50;33.50;;;;;;;8.98;56.86;97818.63;434269;1266;108868;-46
2022/04/23 19:17:38;;;;;;;56.20;31.80;;;;;;;8.78;57.57;97814.23;434212;1266;96680;-43
2022/04/23 19:27:46;;;;;;;80.70;43.40;;;;;;;8.64;58.25;97815.67;434248;1266;111010;-41
2022/04/23 19:37:53;;;;;;;81.20;44.30;;;;;;;8.40;58.75;97805.17;434325;1267;96687;-41
2022/04/23 19:58:10;;;;;;;86.20;49.00;;;;;;;7.96;59.70;97785.15;434199;1267;108892;-44
2022/04/23 20:08:17;;;;;;;71.90;38.20;;;;;;;7.67;60.03;97776.33;434338;1267;106248;-42
2022/04/23 20:18:24;;;;;;;73.30;38.30;;;;;;;7.45;60.57;97771.76;434372;1267;97619;-47
2022/04/23 20:38:53;;;;;;;66.60;41.00;;;;;;;7.14;61.23;97767.23;434285;1267;97496;-43
2022/04/23 20:49:00;;;;;;;77.50;45.40;;;;;;;6.90;61.93;97765.30;434376;1267;111662;-41
2022/04/23 21:09:14;;;;;;;100.70;58.30;;;;;;;6.46;62.53;97768.02;434319;1266;97503;-46
2022/04/23 21:19:21;;;;;;;70.00;44.40;;;;;;;6.31;62.99;97772.30;434230;1267;97967;-46
2022/04/23 21:29:29;;;;;;;76.70;46.30;;;;;;;6.36;63.65;97766.60;434444;1267;109030;-45
2022/04/23 21:39:36;;;;;;;100.10;60.50;;;;;;;6.44;63.65;97769.64;434286;1266;97902;-42
2022/04/23 21:49:43;;;;;;;151.20;84.60;;;;;;;6.26;63.90;97768.91;434385;1267;111065;-43
2022/04/23 21:59:51;;;;;;;177.80;96.10;;;;;;;6.05;64.62;97764.63;434333;1267;109022;-42
2022/04/23 22:09:58;;;;;;;197.40;106.80;;;;;;;5.93;64.89;97758.15;434434;1266;97583;-46
2022/04/23 22:20:06;;;;;;;176.40;91.50;;;;;;;5.79;65.20;97759.38;434106;1267;97910;-45
2022/04/23 22:30:10;;;;;;;143.10;81.90;;;;;;;5.81;65.64;97764.67;434319;1267;107920;-43
2022/04/23 22:40:17;;;;;;;130.10;76.60;;;;;;;5.79;65.78;97760.27;434211;1266;97925;-43
2022/04/23 22:50:24;;;;;;;138.90;81.80;;;;;;;5.73;66.00;97754.90;434117;1268;111373;-45
2022/04/23 23:00:32;;;;;;;191.70;101.40;;;;;;;5.65;66.36;97747.92;434221;1268;108906;-44
2022/04/23 23:10:39;;;;;;;195.10;104.10;;;;;;;5.44;66.62;97745.33;434253;1266;96685;-41
2022/04/23 23:20:46;;;;;;;125.60;74.90;;;;;;;5.30;67.02;97740.36;434324;1267;110987;-44
2022/04/23 23:30:54;;;;;;;146.30;83.80;;;;;;;5.14;66.85;97737.78;434292;1267;108931;-40
2022/04/23 23:41:01;;;;;;;126.70;74.30;;;;;;;4.90;67.03;97737.83;434093;1267;96673;-44
2022/04/23 23:51:08;;;;;;;148.70;81.50;;;;;;;4.80;67.47;97736.52;434137;1266;107772;-44
